createdAt,value
2023-12-21T00:00:23.165Z,5.50
2023-12-21T00:02:51.109Z,5.50
2023-12-21T00:05:20.712Z,5.50
2023-12-21T00:07:48.968Z,5.60
2023-12-21T00:10:17.281Z,5.60
2023-12-21T00:12:45.726Z,5.60
2023-12-21T00:15:14.391Z,5.60
2023-12-21T00:17:42.453Z,5.60
2023-12-21T00:20:10.871Z,5.60
2023-12-21T00:22:40.399Z,5.70
2023-12-21T00:25:09.158Z,5.60
2023-12-21T00:27:37.166Z,5.60
2023-12-21T00:30:06.416Z,5.60
2023-12-21T00:32:34.634Z,5.60
2023-12-21T00:35:02.798Z,5.60
2023-12-21T00:37:37.583Z,5.60
2023-12-21T00:40:08.844Z,5.60
2023-12-21T00:42:39.543Z,5.60
2023-12-21T00:45:08.429Z,5.60
2023-12-21T00:47:36.570Z,5.60
2023-12-21T00:50:05.115Z,5.60
2023-12-21T00:52:33.221Z,5.60
2023-12-21T00:55:01.471Z,5.50
2023-12-21T00:57:30.893Z,5.50
2023-12-21T00:59:58.882Z,5.60
2023-12-21T01:02:26.880Z,5.50
2023-12-21T01:04:54.845Z,5.50
2023-12-21T01:07:22.879Z,5.50
2023-12-21T01:09:50.869Z,5.60
2023-12-21T01:12:18.851Z,5.60
2023-12-21T01:14:48.152Z,5.60
2023-12-21T01:17:16.083Z,5.60
2023-12-21T01:19:44.166Z,5.60
2023-12-21T01:22:12.245Z,5.60
2023-12-21T01:24:40.409Z,5.60
2023-12-21T01:27:16.024Z,5.60
2023-12-21T01:29:51.233Z,5.60
2023-12-21T01:32:19.239Z,5.60
2023-12-21T01:34:47.296Z,5.60
2023-12-21T01:37:15.336Z,5.60
2023-12-21T01:39:43.313Z,5.60
2023-12-21T01:42:11.482Z,5.60
2023-12-21T01:44:39.508Z,5.60
2023-12-21T01:47:09.292Z,5.60
2023-12-21T01:49:37.394Z,5.60
2023-12-21T01:52:06.728Z,5.50
2023-12-21T01:54:34.804Z,5.50
2023-12-21T01:57:03.028Z,5.50
2023-12-21T01:59:32.120Z,5.50
2023-12-21T02:02:00.373Z,5.50
2023-12-21T02:04:30.296Z,5.50
2023-12-21T02:06:58.549Z,5.50
2023-12-21T02:09:26.700Z,5.50
2023-12-21T02:11:54.695Z,5.50
2023-12-21T02:14:23.045Z,5.50
2023-12-21T02:16:55.686Z,5.50
2023-12-21T02:19:24.009Z,5.50
2023-12-21T02:21:58.513Z,5.50
2023-12-21T02:24:29.279Z,5.50
2023-12-21T02:26:57.331Z,5.50
2023-12-21T02:29:25.342Z,5.40
2023-12-21T02:31:53.635Z,5.50
2023-12-21T02:34:21.689Z,5.50
2023-12-21T02:36:49.661Z,5.50
2023-12-21T02:39:17.635Z,5.50
2023-12-21T02:41:48.895Z,5.50
2023-12-21T02:44:16.840Z,5.50
2023-12-21T02:46:44.850Z,5.50
2023-12-21T02:49:13.032Z,5.50
2023-12-21T02:51:41.261Z,5.50
2023-12-21T02:54:09.232Z,5.50
2023-12-21T02:56:37.180Z,5.50
2023-12-21T02:59:06.472Z,5.50
2023-12-21T03:01:34.499Z,5.50
2023-12-21T03:04:02.659Z,5.50
2023-12-21T03:06:30.621Z,5.50
2023-12-21T03:08:58.595Z,5.50
2023-12-21T03:11:26.541Z,5.50
2023-12-21T03:13:54.468Z,5.50
2023-12-21T03:16:23.835Z,5.50
2023-12-21T03:18:51.824Z,5.50
2023-12-21T03:21:19.925Z,5.50
2023-12-21T03:23:47.950Z,5.50
2023-12-21T03:26:15.991Z,5.50
2023-12-21T03:28:46.115Z,5.50
2023-12-21T03:31:14.216Z,5.50
2023-12-21T03:33:43.704Z,5.50
2023-12-21T03:36:13.910Z,5.50
2023-12-21T03:38:41.933Z,5.50
2023-12-21T03:41:10.223Z,5.50
2023-12-21T03:43:39.106Z,5.50
2023-12-21T03:46:10.406Z,5.50
2023-12-21T03:48:38.448Z,5.50
2023-12-21T03:51:08.030Z,5.50
2023-12-21T03:53:39.076Z,5.50
2023-12-21T03:56:08.535Z,5.50
2023-12-21T03:58:37.915Z,5.50
2023-12-21T04:01:06.151Z,5.50
2023-12-21T04:03:34.124Z,5.50
2023-12-21T04:06:02.070Z,5.50
2023-12-21T04:08:31.437Z,5.60
2023-12-21T04:10:59.406Z,5.60
2023-12-21T04:13:27.379Z,5.60
2023-12-21T04:15:55.365Z,5.60
2023-12-21T04:18:23.485Z,5.60
2023-12-21T04:20:51.486Z,5.60
2023-12-21T04:23:19.432Z,5.60
2023-12-21T04:25:48.794Z,5.60
2023-12-21T04:28:16.849Z,5.60
2023-12-21T04:30:45.169Z,5.60
2023-12-21T04:33:14.010Z,5.60
2023-12-21T04:35:45.116Z,5.70
2023-12-21T04:38:13.159Z,5.70
2023-12-21T04:40:41.242Z,5.70
2023-12-21T04:43:11.600Z,5.70
2023-12-21T04:45:39.608Z,5.70
2023-12-21T04:48:08.734Z,5.70
2023-12-21T04:50:36.959Z,5.70
2023-12-21T04:53:05.116Z,5.70
2023-12-21T04:55:33.137Z,5.80
2023-12-21T04:58:03.839Z,5.80
2023-12-21T05:00:33.272Z,5.80
2023-12-21T05:03:01.334Z,5.80
2023-12-21T05:05:29.314Z,5.80
2023-12-21T05:07:57.355Z,5.80
2023-12-21T05:10:25.405Z,5.80
2023-12-21T05:12:53.545Z,5.80
2023-12-21T05:15:21.476Z,5.80
2023-12-21T05:17:50.819Z,5.80
2023-12-21T05:20:18.880Z,5.80
2023-12-21T05:22:47.110Z,5.80
2023-12-21T05:25:17.222Z,5.80
2023-12-21T05:27:45.376Z,5.80
2023-12-21T05:30:14.108Z,5.80
2023-12-21T05:32:42.088Z,5.80
2023-12-21T05:35:11.619Z,5.80
2023-12-21T05:37:39.693Z,5.80
2023-12-21T05:40:08.941Z,5.80
2023-12-21T05:42:37.410Z,5.80
2023-12-21T05:45:06.284Z,5.90
2023-12-21T05:47:34.328Z,5.90
2023-12-21T05:50:03.271Z,5.90
2023-12-21T05:52:32.895Z,5.90
2023-12-21T05:55:00.941Z,5.90
2023-12-21T05:57:28.983Z,5.90
2023-12-21T05:59:56.937Z,5.80
2023-12-21T06:02:24.958Z,5.90
2023-12-21T06:04:52.951Z,5.90
2023-12-21T06:07:21.377Z,5.90
2023-12-21T06:09:51.227Z,5.90
2023-12-21T06:12:19.206Z,5.90
2023-12-21T06:14:47.137Z,5.90
2023-12-21T06:17:16.191Z,5.90
2023-12-21T06:19:44.802Z,5.90
2023-12-21T06:22:12.920Z,5.90
2023-12-21T06:24:40.873Z,5.90
2023-12-21T06:27:10.217Z,5.90
2023-12-21T06:29:38.246Z,5.90
2023-12-21T06:32:07.608Z,6.00
2023-12-21T06:34:35.667Z,6.00
2023-12-21T06:37:04.614Z,6.00
2023-12-21T06:39:34.122Z,6.00
2023-12-21T06:42:02.677Z,6.00
2023-12-21T06:44:32.106Z,6.00
2023-12-21T06:47:00.168Z,6.00
2023-12-21T06:49:28.212Z,6.00
2023-12-21T06:51:56.184Z,6.10
2023-12-21T06:54:24.214Z,6.10
2023-12-21T06:56:52.518Z,6.10
2023-12-21T06:59:20.466Z,6.10
2023-12-21T07:01:49.775Z,6.10
2023-12-21T07:04:18.304Z,6.20
2023-12-21T07:06:46.281Z,6.20
2023-12-21T07:09:15.204Z,6.20
2023-12-21T07:11:43.229Z,6.20
2023-12-21T07:14:11.231Z,6.20
2023-12-21T07:16:39.248Z,6.20
2023-12-21T07:19:08.868Z,6.30
2023-12-21T07:21:36.869Z,6.30
2023-12-21T07:24:05.309Z,6.30
2023-12-21T07:26:33.981Z,6.30
2023-12-21T07:29:02.618Z,6.30
2023-12-21T07:31:30.642Z,6.30
2023-12-21T07:33:58.769Z,6.30
2023-12-21T07:36:28.147Z,6.40
2023-12-21T07:38:56.117Z,6.40
2023-12-21T07:41:24.084Z,6.40
2023-12-21T07:43:52.013Z,6.40
2023-12-21T07:46:21.872Z,6.40
2023-12-21T07:48:49.912Z,6.50
2023-12-21T07:51:18.004Z,6.50
2023-12-21T07:53:47.321Z,6.50
2023-12-21T07:56:15.466Z,6.50
2023-12-21T07:58:43.537Z,6.50
2023-12-21T08:01:11.884Z,6.60
2023-12-21T08:03:39.957Z,6.60
2023-12-21T08:06:07.969Z,6.60
2023-12-21T08:08:39.665Z,6.60
2023-12-21T08:11:14.479Z,6.60
2023-12-21T08:13:42.530Z,6.70
2023-12-21T08:16:10.545Z,6.70
2023-12-21T08:18:38.528Z,6.70
2023-12-21T08:21:06.718Z,6.70
2023-12-21T08:23:34.691Z,6.80
2023-12-21T08:26:03.473Z,6.80
2023-12-21T08:28:32.939Z,6.80
2023-12-21T08:31:01.818Z,6.80
2023-12-21T08:33:30.691Z,6.80
2023-12-21T08:35:59.792Z,6.80
2023-12-21T08:38:27.803Z,6.80
2023-12-21T08:40:55.870Z,6.90
2023-12-21T08:43:23.870Z,6.90
2023-12-21T08:45:55.364Z,6.90
2023-12-21T08:48:23.418Z,6.90
2023-12-21T08:50:51.439Z,6.90
2023-12-21T08:53:19.356Z,7.00
2023-12-21T08:55:47.457Z,7.00
2023-12-21T08:58:15.564Z,7.00
2023-12-21T09:00:45.530Z,7.00
2023-12-21T09:03:14.961Z,7.00
2023-12-21T09:05:43.049Z,7.00
2023-12-21T09:08:11.062Z,7.10
2023-12-21T09:10:39.066Z,7.10
2023-12-21T09:13:07.062Z,7.10
2023-12-21T09:15:37.591Z,7.10
2023-12-21T09:18:07.465Z,7.10
2023-12-21T09:20:36.852Z,7.10
2023-12-21T09:23:05.772Z,7.20
2023-12-21T09:25:34.255Z,7.20
2023-12-21T09:28:04.296Z,7.20
2023-12-21T09:30:32.575Z,7.20
2023-12-21T09:33:01.715Z,7.20
2023-12-21T09:35:29.990Z,7.30
2023-12-21T09:37:59.373Z,7.30
2023-12-21T09:40:27.517Z,7.30
2023-12-21T09:43:05.375Z,7.40
2023-12-21T09:45:40.958Z,7.40
2023-12-21T09:48:10.030Z,7.50
2023-12-21T09:50:38.264Z,7.50
2023-12-21T09:53:07.945Z,7.50
2023-12-21T09:55:36.894Z,7.60
2023-12-21T09:58:07.185Z,7.60
2023-12-21T10:00:36.012Z,7.70
2023-12-21T10:03:05.081Z,7.70
2023-12-21T10:05:33.126Z,7.70
2023-12-21T10:08:01.461Z,7.80
2023-12-21T10:10:31.269Z,7.80
2023-12-21T10:13:03.227Z,7.90
2023-12-21T10:15:33.881Z,7.90
2023-12-21T10:18:02.334Z,7.90
2023-12-21T10:20:30.315Z,7.90
2023-12-21T10:22:58.574Z,8.00
2023-12-21T10:25:28.239Z,8.10
2023-12-21T10:27:58.484Z,8.10
2023-12-21T10:30:26.859Z,8.20
2023-12-21T10:32:57.778Z,8.20
2023-12-21T10:35:28.032Z,8.30
2023-12-21T10:37:56.811Z,8.30
2023-12-21T10:40:25.039Z,8.30
2023-12-21T10:42:53.810Z,8.40
2023-12-21T10:45:33.663Z,8.40
2023-12-21T10:48:08.801Z,8.40
2023-12-21T10:50:38.233Z,8.40
2023-12-21T10:53:07.158Z,8.50
2023-12-21T10:55:36.370Z,8.50
2023-12-21T10:58:07.824Z,8.60
2023-12-21T11:00:37.715Z,8.60
2023-12-21T11:03:09.288Z,8.60
2023-12-21T11:05:41.154Z,8.60
2023-12-21T11:08:09.545Z,8.60
2023-12-21T11:10:38.896Z,8.60
2023-12-21T11:13:07.371Z,8.50
2023-12-21T11:15:38.314Z,8.50
2023-12-21T11:18:10.113Z,8.50
2023-12-21T11:20:48.385Z,8.60
2023-12-21T11:23:18.786Z,8.60
2023-12-21T11:25:56.196Z,8.60
2023-12-21T11:28:28.777Z,8.60
2023-12-21T11:30:58.190Z,8.70
2023-12-21T11:33:30.106Z,8.70
2023-12-21T11:35:59.050Z,8.70
2023-12-21T11:38:43.183Z,8.80
2023-12-21T11:41:11.686Z,8.90
2023-12-21T11:43:39.719Z,8.90
2023-12-21T11:46:10.275Z,8.90
2023-12-21T11:48:40.415Z,9.00
2023-12-21T11:51:08.452Z,9.00
2023-12-21T11:53:43.270Z,9.00
2023-12-21T11:56:15.271Z,9.10
2023-12-21T11:58:44.839Z,9.10
2023-12-21T12:01:27.096Z,9.10
2023-12-21T12:03:55.550Z,9.10
2023-12-21T12:06:27.010Z,9.10
2023-12-21T12:08:55.011Z,9.10
2023-12-21T12:11:23.020Z,9.10
2023-12-21T12:13:51.000Z,9.10
2023-12-21T12:16:19.629Z,9.10
2023-12-21T12:18:49.097Z,9.10
2023-12-21T12:21:18.087Z,9.10
2023-12-21T12:23:48.663Z,9.00
2023-12-21T12:26:17.598Z,9.00
2023-12-21T12:28:45.998Z,9.00
2023-12-21T12:31:14.648Z,9.00
2023-12-21T12:33:42.893Z,9.00
2023-12-21T12:36:12.626Z,9.00
2023-12-21T12:38:40.615Z,9.00
2023-12-21T12:41:08.905Z,9.00
2023-12-21T12:43:37.010Z,8.90
2023-12-21T12:46:06.345Z,8.90
2023-12-21T12:48:34.676Z,8.90
2023-12-21T12:51:02.720Z,8.90
2023-12-21T12:53:32.121Z,8.90
2023-12-21T12:56:01.210Z,8.90
2023-12-21T12:58:48.412Z,8.90
2023-12-21T13:01:26.550Z,8.90
2023-12-21T13:03:55.372Z,8.90
2023-12-21T13:06:23.625Z,8.90
2023-12-21T13:08:53.044Z,8.90
2023-12-21T13:11:22.694Z,9.00
2023-12-21T13:13:51.129Z,9.00
2023-12-21T13:16:20.267Z,9.00
2023-12-21T13:18:49.236Z,9.00
2023-12-21T13:21:17.942Z,9.00
2023-12-21T13:23:45.909Z,9.00
2023-12-21T13:26:16.875Z,8.90
2023-12-21T13:28:45.334Z,8.90
2023-12-21T13:31:15.481Z,8.90
2023-12-21T13:33:43.770Z,9.00
2023-12-21T13:36:12.306Z,9.00
2023-12-21T13:38:40.277Z,8.90
2023-12-21T13:41:10.202Z,8.90
2023-12-21T13:43:43.120Z,8.90
2023-12-21T13:46:12.150Z,8.90
2023-12-21T13:48:40.273Z,8.90
2023-12-21T13:51:08.441Z,8.90
2023-12-21T13:53:36.968Z,8.80
2023-12-21T13:56:07.074Z,8.90
2023-12-21T13:58:35.101Z,8.90
2023-12-21T14:01:05.229Z,8.90
2023-12-21T14:03:33.387Z,8.90
2023-12-21T14:06:01.900Z,8.90
2023-12-21T14:08:29.945Z,8.90
2023-12-21T14:10:57.964Z,8.80
2023-12-21T14:13:26.003Z,8.90
2023-12-21T14:15:54.137Z,8.80
2023-12-21T14:18:24.151Z,8.80
2023-12-21T14:20:52.862Z,8.80
2023-12-21T14:23:22.434Z,8.80
2023-12-21T14:25:50.628Z,8.70
2023-12-21T14:28:18.966Z,8.70
2023-12-21T14:30:48.532Z,8.70
2023-12-21T14:33:16.869Z,8.70
2023-12-21T14:35:49.244Z,8.70
2023-12-21T14:38:17.961Z,8.70
2023-12-21T14:40:46.464Z,8.70
2023-12-21T14:43:15.118Z,8.70
2023-12-21T14:45:43.144Z,8.70
2023-12-21T14:48:11.210Z,8.70
2023-12-21T14:50:39.245Z,8.60
2023-12-21T14:53:08.581Z,8.70
2023-12-21T14:55:36.614Z,8.60
2023-12-21T14:58:04.966Z,8.60
2023-12-21T15:00:36.699Z,8.60
2023-12-21T15:03:05.597Z,8.60
2023-12-21T15:05:33.583Z,8.60
2023-12-21T15:08:01.806Z,8.60
2023-12-21T15:10:31.339Z,8.60
2023-12-21T15:12:59.332Z,8.60
2023-12-21T15:15:27.334Z,8.60
2023-12-21T15:17:55.315Z,8.60
2023-12-21T15:20:23.403Z,8.60
2023-12-21T15:22:52.897Z,8.60
2023-12-21T15:25:21.194Z,8.60
2023-12-21T15:27:50.755Z,8.60
2023-12-21T15:30:19.684Z,8.60
2023-12-21T15:32:48.558Z,8.60
2023-12-21T15:35:17.750Z,8.70
2023-12-21T15:37:46.207Z,8.70
2023-12-21T15:40:14.395Z,8.70
2023-12-21T15:42:42.434Z,8.70
2023-12-21T15:45:12.251Z,8.70
2023-12-21T15:47:44.949Z,8.70
2023-12-21T15:50:13.729Z,8.80
2023-12-21T15:52:41.807Z,8.80
2023-12-21T15:55:10.166Z,8.90
2023-12-21T15:57:38.614Z,8.90
2023-12-21T16:00:08.312Z,8.90
2023-12-21T16:02:37.695Z,9.00
2023-12-21T16:05:06.821Z,9.00
2023-12-21T16:07:34.809Z,9.00
2023-12-21T16:10:03.577Z,9.10
2023-12-21T16:12:31.590Z,9.10
2023-12-21T16:15:02.076Z,9.10
2023-12-21T16:17:30.162Z,9.10
2023-12-21T16:19:59.515Z,9.20
2023-12-21T16:22:27.577Z,9.20
2023-12-21T16:24:55.731Z,9.20
2023-12-21T16:27:23.692Z,9.30
2023-12-21T16:29:52.481Z,9.20
2023-12-21T16:32:20.526Z,9.20
2023-12-21T16:34:48.581Z,9.20
2023-12-21T16:37:18.008Z,9.30
2023-12-21T16:39:45.969Z,9.30
2023-12-21T16:42:14.339Z,9.30
2023-12-21T16:44:42.822Z,9.30
2023-12-21T16:47:10.806Z,9.30
2023-12-21T16:49:38.869Z,9.30
2023-12-21T16:52:07.979Z,9.30
2023-12-21T16:54:37.333Z,9.40
2023-12-21T16:57:05.844Z,9.30
2023-12-21T16:59:33.795Z,9.30
2023-12-21T17:02:01.808Z,9.30
2023-12-21T17:04:29.904Z,9.20
2023-12-21T17:06:57.997Z,9.30
2023-12-21T17:09:25.943Z,9.30
2023-12-21T17:11:55.338Z,9.30
2023-12-21T17:14:23.382Z,9.20
2023-12-21T17:16:51.395Z,9.30
2023-12-21T17:19:19.563Z,9.20
2023-12-21T17:21:47.565Z,9.20
2023-12-21T17:24:15.826Z,9.20
2023-12-21T17:26:43.800Z,9.10
2023-12-21T17:29:13.730Z,9.10
2023-12-21T17:31:42.322Z,9.10
2023-12-21T17:34:14.674Z,9.10
2023-12-21T17:36:45.540Z,9.10
2023-12-21T17:39:13.572Z,9.10
2023-12-21T17:41:44.417Z,9.10
2023-12-21T17:44:13.913Z,9.00
2023-12-21T17:46:41.902Z,9.00
2023-12-21T17:49:11.406Z,9.00
2023-12-21T17:51:39.488Z,9.00
2023-12-21T17:54:07.692Z,9.00
2023-12-21T17:56:36.060Z,9.00
2023-12-21T17:59:06.017Z,9.00
2023-12-21T18:01:38.693Z,8.90
2023-12-21T18:04:08.948Z,9.00
2023-12-21T18:06:37.453Z,8.90
2023-12-21T18:09:05.599Z,8.90
2023-12-21T18:11:34.325Z,8.90
2023-12-21T18:14:03.509Z,8.90
2023-12-21T18:16:32.811Z,9.00
2023-12-21T18:19:06.677Z,9.00
2023-12-21T18:21:35.723Z,9.00
2023-12-21T18:24:04.537Z,9.10
2023-12-21T18:26:32.679Z,9.10
2023-12-21T18:29:00.865Z,9.00
2023-12-21T18:31:29.215Z,9.10
2023-12-21T18:33:57.589Z,9.10
2023-12-21T18:36:27.284Z,9.00
2023-12-21T18:38:57.598Z,9.10
2023-12-21T18:41:25.985Z,9.10
2023-12-21T18:43:54.113Z,9.20
2023-12-21T18:46:22.279Z,9.20
2023-12-21T18:48:52.358Z,9.20
2023-12-21T18:51:20.538Z,9.10
2023-12-21T18:53:49.985Z,9.20
2023-12-21T18:56:18.022Z,9.20
2023-12-21T18:58:48.701Z,9.20
2023-12-21T19:01:18.438Z,9.20
2023-12-21T19:03:46.898Z,9.20
2023-12-21T19:06:15.341Z,9.20
2023-12-21T19:08:51.045Z,9.20
2023-12-21T19:11:22.014Z,9.20
2023-12-21T19:13:50.906Z,9.20
2023-12-21T19:16:20.406Z,9.20
2023-12-21T19:18:49.416Z,9.10
2023-12-21T19:21:18.200Z,9.10
2023-12-21T19:23:46.418Z,9.10
2023-12-21T19:26:14.769Z,9.10
2023-12-21T19:28:46.024Z,9.10
2023-12-21T19:31:19.754Z,9.10
2023-12-21T19:33:48.193Z,9.00
2023-12-21T19:36:18.216Z,9.10
2023-12-21T19:38:48.991Z,9.00
2023-12-21T19:41:17.116Z,9.00
2023-12-21T19:43:46.793Z,9.00
2023-12-21T19:46:16.602Z,9.00
2023-12-21T19:48:44.811Z,8.90
2023-12-21T19:51:14.051Z,8.90
2023-12-21T19:53:43.003Z,8.90
2023-12-21T19:56:13.195Z,8.90
2023-12-21T19:58:44.285Z,8.80
2023-12-21T20:01:13.865Z,8.80
2023-12-21T20:03:42.062Z,8.70
2023-12-21T20:06:10.148Z,8.70
2023-12-21T20:08:39.286Z,8.70
2023-12-21T20:11:07.359Z,8.70
2023-12-21T20:13:35.572Z,8.70
2023-12-21T20:16:03.923Z,8.70
2023-12-21T20:18:33.553Z,8.70
2023-12-21T20:21:01.637Z,8.70
2023-12-21T20:23:29.872Z,8.80
2023-12-21T20:25:58.121Z,8.80
2023-12-21T20:28:26.401Z,8.80
2023-12-21T20:30:54.517Z,8.80
2023-12-21T20:33:23.633Z,8.80
2023-12-21T20:35:53.138Z,8.80
2023-12-21T20:38:21.784Z,8.90
2023-12-21T20:40:49.915Z,8.90
2023-12-21T20:43:20.146Z,9.00
2023-12-21T20:45:48.351Z,9.00
2023-12-21T20:48:16.422Z,9.00
2023-12-21T20:50:45.248Z,8.90
2023-12-21T20:53:15.477Z,8.90
2023-12-21T20:55:43.618Z,9.00
2023-12-21T20:58:11.844Z,9.00
2023-12-21T21:00:40.032Z,9.00
2023-12-21T21:03:08.355Z,9.00
2023-12-21T21:05:36.494Z,8.90
2023-12-21T21:08:05.003Z,8.90
2023-12-21T21:10:34.574Z,8.90
2023-12-21T21:13:02.775Z,8.90
2023-12-21T21:15:31.878Z,8.90
2023-12-21T21:18:00.129Z,8.90
2023-12-21T21:20:28.387Z,8.90
2023-12-21T21:22:57.058Z,8.90
2023-12-21T21:25:25.259Z,8.80
2023-12-21T21:27:54.779Z,8.80
2023-12-21T21:30:54.988Z,8.80
2023-12-21T21:33:11.598Z,8.80
2023-12-21T21:35:39.805Z,8.70
2023-12-21T21:38:07.911Z,8.70
2023-12-21T21:40:37.917Z,8.60
2023-12-21T21:43:09.372Z,8.60
2023-12-21T21:45:37.463Z,8.60
2023-12-21T21:48:06.494Z,8.50
2023-12-21T21:50:34.622Z,8.50
2023-12-21T21:53:02.833Z,8.50
2023-12-21T21:55:31.193Z,8.50
2023-12-21T21:58:02.168Z,8.60
2023-12-21T22:00:31.777Z,8.50
2023-12-21T22:03:07.004Z,8.50
2023-12-21T22:05:35.317Z,8.50
2023-12-21T22:08:08.903Z,8.50
2023-12-21T22:10:37.092Z,8.50
2023-12-21T22:13:05.481Z,8.40
2023-12-21T22:15:34.887Z,8.40
2023-12-21T22:18:07.162Z,8.40
2023-12-21T22:20:35.710Z,8.50
2023-12-21T22:23:05.037Z,8.50
2023-12-21T22:25:34.571Z,8.50
2023-12-21T22:28:02.955Z,8.50
2023-12-21T22:30:32.275Z,8.50
2023-12-21T22:33:03.529Z,8.50
2023-12-21T22:35:32.236Z,8.50
2023-12-21T22:38:02.293Z,8.50
2023-12-21T22:40:30.511Z,8.60
2023-12-21T22:43:02.165Z,8.60
2023-12-21T22:45:30.604Z,8.60
2023-12-21T22:48:01.118Z,8.60
2023-12-21T22:50:29.410Z,8.60
2023-12-21T22:52:57.686Z,8.60
2023-12-21T22:55:26.927Z,8.50
2023-12-21T22:57:56.645Z,8.50
2023-12-21T23:00:24.785Z,8.50
2023-12-21T23:02:53.107Z,8.40
2023-12-21T23:05:23.025Z,8.40
2023-12-21T23:07:51.309Z,8.40
2023-12-21T23:10:21.121Z,8.40
2023-12-21T23:12:49.704Z,8.40
2023-12-21T23:15:25.326Z,8.40
2023-12-21T23:17:53.700Z,8.30
2023-12-21T23:20:23.228Z,8.30
2023-12-21T23:22:51.590Z,8.30
2023-12-21T23:25:20.822Z,8.20
2023-12-21T23:27:51.884Z,8.10
2023-12-21T23:30:20.137Z,8.00
2023-12-21T23:32:48.603Z,7.90
2023-12-21T23:35:19.092Z,8.00
2023-12-21T23:37:50.479Z,8.00
2023-12-21T23:40:19.397Z,8.00
2023-12-21T23:42:48.017Z,8.00
2023-12-21T23:45:16.429Z,8.00
2023-12-21T23:47:44.775Z,8.10
2023-12-21T23:50:13.177Z,8.10
2023-12-21T23:52:41.383Z,8.10
2023-12-21T23:55:11.243Z,8.10
2023-12-21T23:57:39.440Z,8.10
